sensor_id;sensor_type;location;lat;lon;timestamp;P1;durP1;ratioP1;P2;durP2;ratioP2
2570;SDS011;1295;51.130;6.732;2023-08-20T00:01:02;53.27;;;13.90;;
2570;SDS011;1295;51.130;6.732;2023-08-20T00:03:27;52.60;;;15.90;;
2570;SDS011;1295;51.130;6.732;2023-08-20T00:05:54;50.60;;;15.67;;
2570;SDS011;1295;51.130;6.732;2023-08-20T00:08:20;53.27;;;15.03;;
2570;SDS011;1295;51.130;6.732;2023-08-20T00:10:55;55.40;;;14.40;;
2570;SDS011;1295;51.130;6.732;2023-08-20T00:13:21;53.60;;;15.50;;
2570;SDS011;1295;51.130;6.732;2023-08-20T00:15:48;56.20;;;14.53;;
2570;SDS011;1295;51.130;6.732;2023-08-20T00:18:14;54.93;;;15.20;;
2570;SDS011;1295;51.130;6.732;2023-08-20T00:20:41;54.33;;;14.93;;
2570;SDS011;1295;51.130;6.732;2023-08-20T00:23:08;54.60;;;15.90;;
2570;SDS011;1295;51.130;6.732;2023-08-20T00:25:34;53.10;;;15.47;;
2570;SDS011;1295;51.130;6.732;2023-08-20T00:28:00;51.13;;;15.53;;
2570;SDS011;1295;51.130;6.732;2023-08-20T00:30:26;59.63;;;17.37;;
2570;SDS011;1295;51.130;6.732;2023-08-20T00:32:52;52.43;;;15.40;;
2570;SDS011;1295;51.130;6.732;2023-08-20T00:35:18;55.83;;;15.20;;
2570;SDS011;1295;51.130;6.732;2023-08-20T00:37:44;52.73;;;13.67;;
2570;SDS011;1295;51.130;6.732;2023-08-20T00:40:10;53.50;;;15.20;;
2570;SDS011;1295;51.130;6.732;2023-08-20T00:42:36;53.60;;;15.97;;
2570;SDS011;1295;51.130;6.732;2023-08-20T00:45:02;54.00;;;16.17;;
2570;SDS011;1295;51.130;6.732;2023-08-20T00:47:28;53.37;;;15.03;;
2570;SDS011;1295;51.130;6.732;2023-08-20T00:49:54;53.67;;;15.47;;
2570;SDS011;1295;51.130;6.732;2023-08-20T00:52:20;53.70;;;15.30;;
2570;SDS011;1295;51.130;6.732;2023-08-20T00:54:50;54.77;;;15.33;;
2570;SDS011;1295;51.130;6.732;2023-08-20T00:57:18;54.37;;;17.40;;
2570;SDS011;1295;51.130;6.732;2023-08-20T00:59:43;56.03;;;15.93;;
2570;SDS011;1295;51.130;6.732;2023-08-20T01:02:08;52.67;;;14.33;;
2570;SDS011;1295;51.130;6.732;2023-08-20T01:04:34;60.40;;;16.57;;
2570;SDS011;1295;51.130;6.732;2023-08-20T01:07:04;57.70;;;17.10;;
2570;SDS011;1295;51.130;6.732;2023-08-20T01:09:48;56.47;;;16.13;;
2570;SDS011;1295;51.130;6.732;2023-08-20T01:12:15;54.90;;;15.97;;
2570;SDS011;1295;51.130;6.732;2023-08-20T01:14:40;60.40;;;16.53;;
2570;SDS011;1295;51.130;6.732;2023-08-20T01:17:06;56.37;;;16.13;;
2570;SDS011;1295;51.130;6.732;2023-08-20T01:19:31;63.13;;;16.27;;
2570;SDS011;1295;51.130;6.732;2023-08-20T01:22:05;53.90;;;15.33;;
2570;SDS011;1295;51.130;6.732;2023-08-20T01:29:52;52.33;;;17.40;;
2570;SDS011;1295;51.130;6.732;2023-08-20T01:32:17;53.60;;;13.73;;
2570;SDS011;1295;51.130;6.732;2023-08-20T01:34:43;54.77;;;16.00;;
2570;SDS011;1295;51.130;6.732;2023-08-20T01:37:09;56.17;;;15.50;;
2570;SDS011;1295;51.130;6.732;2023-08-20T01:39:35;54.50;;;15.90;;
2570;SDS011;1295;51.130;6.732;2023-08-20T01:42:01;53.70;;;16.93;;
2570;SDS011;1295;51.130;6.732;2023-08-20T01:44:26;55.43;;;16.30;;
2570;SDS011;1295;51.130;6.732;2023-08-20T01:46:52;57.93;;;15.10;;
2570;SDS011;1295;51.130;6.732;2023-08-20T01:49:18;56.77;;;15.80;;
2570;SDS011;1295;51.130;6.732;2023-08-20T01:51:43;54.50;;;17.50;;
2570;SDS011;1295;51.130;6.732;2023-08-20T01:54:10;54.90;;;15.93;;
2570;SDS011;1295;51.130;6.732;2023-08-20T01:56:35;57.23;;;17.13;;
2570;SDS011;1295;51.130;6.732;2023-08-20T01:59:01;63.40;;;17.10;;
2570;SDS011;1295;51.130;6.732;2023-08-20T02:01:26;55.70;;;18.00;;
2570;SDS011;1295;51.130;6.732;2023-08-20T02:03:53;57.43;;;16.73;;
2570;SDS011;1295;51.130;6.732;2023-08-20T02:06:18;56.23;;;15.40;;
2570;SDS011;1295;51.130;6.732;2023-08-20T02:08:44;58.63;;;15.80;;
2570;SDS011;1295;51.130;6.732;2023-08-20T02:11:10;52.80;;;14.87;;
2570;SDS011;1295;51.130;6.732;2023-08-20T02:13:35;58.20;;;15.63;;
2570;SDS011;1295;51.130;6.732;2023-08-20T02:16:09;54.30;;;16.07;;
2570;SDS011;1295;51.130;6.732;2023-08-20T02:18:34;58.23;;;18.27;;
2570;SDS011;1295;51.130;6.732;2023-08-20T02:21:00;55.07;;;17.47;;
2570;SDS011;1295;51.130;6.732;2023-08-20T02:23:26;60.07;;;18.23;;
2570;SDS011;1295;51.130;6.732;2023-08-20T02:25:52;61.80;;;17.07;;
2570;SDS011;1295;51.130;6.732;2023-08-20T02:28:18;56.03;;;16.20;;
2570;SDS011;1295;51.130;6.732;2023-08-20T02:30:44;56.83;;;18.80;;
2570;SDS011;1295;51.130;6.732;2023-08-20T02:33:09;56.50;;;19.57;;
2570;SDS011;1295;51.130;6.732;2023-08-20T02:35:35;56.77;;;17.03;;
2570;SDS011;1295;51.130;6.732;2023-08-20T02:38:02;55.27;;;16.80;;
2570;SDS011;1295;51.130;6.732;2023-08-20T02:40:28;52.17;;;15.73;;
2570;SDS011;1295;51.130;6.732;2023-08-20T02:42:53;53.83;;;16.87;;
2570;SDS011;1295;51.130;6.732;2023-08-20T02:45:19;52.17;;;14.97;;
2570;SDS011;1295;51.130;6.732;2023-08-20T02:47:45;57.80;;;20.70;;
2570;SDS011;1295;51.130;6.732;2023-08-20T02:50:11;58.50;;;25.30;;
2570;SDS011;1295;51.130;6.732;2023-08-20T02:52:37;58.33;;;21.33;;
2570;SDS011;1295;51.130;6.732;2023-08-20T02:55:03;56.73;;;21.80;;
2570;SDS011;1295;51.130;6.732;2023-08-20T02:57:30;54.43;;;18.97;;
2570;SDS011;1295;51.130;6.732;2023-08-20T02:59:56;65.50;;;22.13;;
2570;SDS011;1295;51.130;6.732;2023-08-20T03:02:22;60.77;;;19.30;;
2570;SDS011;1295;51.130;6.732;2023-08-20T03:04:48;56.10;;;20.23;;
2570;SDS011;1295;51.130;6.732;2023-08-20T03:07:15;54.50;;;19.10;;
2570;SDS011;1295;51.130;6.732;2023-08-20T03:09:40;59.00;;;18.87;;
2570;SDS011;1295;51.130;6.732;2023-08-20T03:12:07;56.00;;;18.57;;
2570;SDS011;1295;51.130;6.732;2023-08-20T03:14:33;56.87;;;20.80;;
2570;SDS011;1295;51.130;6.732;2023-08-20T03:16:58;54.67;;;19.83;;
2570;SDS011;1295;51.130;6.732;2023-08-20T03:19:24;55.60;;;21.13;;
2570;SDS011;1295;51.130;6.732;2023-08-20T03:21:50;57.00;;;22.30;;
2570;SDS011;1295;51.130;6.732;2023-08-20T03:24:15;63.20;;;23.93;;
2570;SDS011;1295;51.130;6.732;2023-08-20T03:26:41;56.43;;;21.70;;
2570;SDS011;1295;51.130;6.732;2023-08-20T03:29:06;61.43;;;22.10;;
2570;SDS011;1295;51.130;6.732;2023-08-20T03:31:32;58.00;;;20.50;;
2570;SDS011;1295;51.130;6.732;2023-08-20T03:33:58;59.73;;;19.40;;
2570;SDS011;1295;51.130;6.732;2023-08-20T03:36:24;62.80;;;23.37;;
2570;SDS011;1295;51.130;6.732;2023-08-20T03:38:50;60.93;;;24.87;;
2570;SDS011;1295;51.130;6.732;2023-08-20T03:41:15;60.10;;;26.27;;
2570;SDS011;1295;51.130;6.732;2023-08-20T03:43:41;61.67;;;25.73;;
2570;SDS011;1295;51.130;6.732;2023-08-20T03:46:07;60.30;;;25.77;;
2570;SDS011;1295;51.130;6.732;2023-08-20T03:48:32;65.20;;;26.53;;
2570;SDS011;1295;51.130;6.732;2023-08-20T03:50:58;59.13;;;28.37;;
2570;SDS011;1295;51.130;6.732;2023-08-20T03:53:23;60.93;;;28.87;;
2570;SDS011;1295;51.130;6.732;2023-08-20T03:55:49;62.13;;;25.37;;
2570;SDS011;1295;51.130;6.732;2023-08-20T03:58:15;58.57;;;23.87;;
2570;SDS011;1295;51.130;6.732;2023-08-20T04:00:40;62.60;;;22.70;;
2570;SDS011;1295;51.130;6.732;2023-08-20T04:03:06;63.40;;;24.60;;
2570;SDS011;1295;51.130;6.732;2023-08-20T04:05:36;62.80;;;24.67;;
2570;SDS011;1295;51.130;6.732;2023-08-20T04:08:02;62.07;;;25.13;;
2570;SDS011;1295;51.130;6.732;2023-08-20T04:10:27;62.23;;;23.70;;
2570;SDS011;1295;51.130;6.732;2023-08-20T04:12:54;60.43;;;21.40;;
2570;SDS011;1295;51.130;6.732;2023-08-20T04:15:19;63.83;;;24.27;;
2570;SDS011;1295;51.130;6.732;2023-08-20T04:17:45;62.57;;;24.97;;
2570;SDS011;1295;51.130;6.732;2023-08-20T04:20:17;64.60;;;24.17;;
2570;SDS011;1295;51.130;6.732;2023-08-20T04:22:43;67.43;;;24.40;;
2570;SDS011;1295;51.130;6.732;2023-08-20T04:25:09;59.10;;;23.80;;
2570;SDS011;1295;51.130;6.732;2023-08-20T04:27:34;65.00;;;27.37;;
2570;SDS011;1295;51.130;6.732;2023-08-20T04:30:00;60.67;;;18.10;;
2570;SDS011;1295;51.130;6.732;2023-08-20T04:32:26;59.80;;;17.87;;
2570;SDS011;1295;51.130;6.732;2023-08-20T04:34:51;61.43;;;20.07;;
2570;SDS011;1295;51.130;6.732;2023-08-20T04:37:18;69.50;;;19.57;;
2570;SDS011;1295;51.130;6.732;2023-08-20T04:39:42;65.70;;;19.47;;
2570;SDS011;1295;51.130;6.732;2023-08-20T04:42:08;66.30;;;19.33;;
2570;SDS011;1295;51.130;6.732;2023-08-20T04:44:34;64.30;;;20.50;;
2570;SDS011;1295;51.130;6.732;2023-08-20T04:46:59;64.40;;;21.80;;
2570;SDS011;1295;51.130;6.732;2023-08-20T04:49:25;59.97;;;20.83;;
2570;SDS011;1295;51.130;6.732;2023-08-20T04:51:50;59.20;;;21.23;;
2570;SDS011;1295;51.130;6.732;2023-08-20T04:54:16;59.10;;;18.77;;
2570;SDS011;1295;51.130;6.732;2023-08-20T04:56:42;61.97;;;22.40;;
2570;SDS011;1295;51.130;6.732;2023-08-20T04:59:07;63.20;;;19.90;;
2570;SDS011;1295;51.130;6.732;2023-08-20T05:01:33;63.43;;;21.00;;
2570;SDS011;1295;51.130;6.732;2023-08-20T05:03:59;62.80;;;22.40;;
2570;SDS011;1295;51.130;6.732;2023-08-20T05:06:24;61.87;;;22.17;;
2570;SDS011;1295;51.130;6.732;2023-08-20T05:08:50;62.60;;;21.30;;
2570;SDS011;1295;51.130;6.732;2023-08-20T05:11:15;60.60;;;21.80;;
2570;SDS011;1295;51.130;6.732;2023-08-20T05:13:41;64.60;;;22.23;;
2570;SDS011;1295;51.130;6.732;2023-08-20T05:16:07;69.80;;;23.00;;
2570;SDS011;1295;51.130;6.732;2023-08-20T05:18:32;63.40;;;21.80;;
2570;SDS011;1295;51.130;6.732;2023-08-20T05:20:58;63.50;;;22.70;;
2570;SDS011;1295;51.130;6.732;2023-08-20T05:23:24;64.10;;;22.47;;
2570;SDS011;1295;51.130;6.732;2023-08-20T05:25:50;63.20;;;22.60;;
2570;SDS011;1295;51.130;6.732;2023-08-20T05:28:15;67.03;;;24.23;;
2570;SDS011;1295;51.130;6.732;2023-08-20T05:30:41;68.17;;;24.17;;
2570;SDS011;1295;51.130;6.732;2023-08-20T05:33:07;63.27;;;22.10;;
2570;SDS011;1295;51.130;6.732;2023-08-20T05:35:32;62.10;;;20.33;;
2570;SDS011;1295;51.130;6.732;2023-08-20T05:37:58;62.87;;;24.10;;
2570;SDS011;1295;51.130;6.732;2023-08-20T05:40:23;65.47;;;22.07;;
2570;SDS011;1295;51.130;6.732;2023-08-20T05:42:49;69.47;;;25.20;;
2570;SDS011;1295;51.130;6.732;2023-08-20T05:45:15;64.20;;;21.80;;
2570;SDS011;1295;51.130;6.732;2023-08-20T05:47:40;66.77;;;22.67;;
2570;SDS011;1295;51.130;6.732;2023-08-20T05:50:06;64.43;;;22.07;;
2570;SDS011;1295;51.130;6.732;2023-08-20T05:52:32;63.17;;;23.13;;
2570;SDS011;1295;51.130;6.732;2023-08-20T05:54:58;67.17;;;22.07;;
2570;SDS011;1295;51.130;6.732;2023-08-20T05:57:23;67.17;;;21.93;;
2570;SDS011;1295;51.130;6.732;2023-08-20T05:59:49;62.57;;;20.90;;
2570;SDS011;1295;51.130;6.732;2023-08-20T06:02:16;60.23;;;20.33;;
2570;SDS011;1295;51.130;6.732;2023-08-20T06:04:41;62.90;;;18.93;;
2570;SDS011;1295;51.130;6.732;2023-08-20T06:07:07;61.03;;;19.00;;
2570;SDS011;1295;51.130;6.732;2023-08-20T06:09:32;57.47;;;14.67;;
2570;SDS011;1295;51.130;6.732;2023-08-20T06:11:58;62.70;;;18.10;;
2570;SDS011;1295;51.130;6.732;2023-08-20T06:14:30;64.50;;;20.07;;
2570;SDS011;1295;51.130;6.732;2023-08-20T06:16:56;59.27;;;14.47;;
2570;SDS011;1295;51.130;6.732;2023-08-20T06:19:22;65.40;;;20.00;;
2570;SDS011;1295;51.130;6.732;2023-08-20T06:21:47;57.90;;;14.70;;
2570;SDS011;1295;51.130;6.732;2023-08-20T06:24:13;59.47;;;17.80;;
2570;SDS011;1295;51.130;6.732;2023-08-20T06:26:39;56.10;;;11.90;;
2570;SDS011;1295;51.130;6.732;2023-08-20T06:29:04;58.87;;;13.57;;
2570;SDS011;1295;51.130;6.732;2023-08-20T06:31:30;58.13;;;10.90;;
2570;SDS011;1295;51.130;6.732;2023-08-20T06:33:56;61.90;;;16.17;;
2570;SDS011;1295;51.130;6.732;2023-08-20T06:36:21;65.87;;;15.93;;
2570;SDS011;1295;51.130;6.732;2023-08-20T06:38:47;62.90;;;19.57;;
2570;SDS011;1295;51.130;6.732;2023-08-20T06:41:13;62.27;;;17.40;;
2570;SDS011;1295;51.130;6.732;2023-08-20T06:43:39;62.67;;;18.80;;
2570;SDS011;1295;51.130;6.732;2023-08-20T06:46:04;68.90;;;19.80;;
2570;SDS011;1295;51.130;6.732;2023-08-20T06:48:30;63.27;;;21.30;;
2570;SDS011;1295;51.130;6.732;2023-08-20T06:50:56;62.60;;;19.50;;
2570;SDS011;1295;51.130;6.732;2023-08-20T06:53:21;61.60;;;14.00;;
2570;SDS011;1295;51.130;6.732;2023-08-20T06:55:48;59.07;;;13.50;;
2570;SDS011;1295;51.130;6.732;2023-08-20T06:58:13;55.63;;;11.60;;
2570;SDS011;1295;51.130;6.732;2023-08-20T07:00:39;56.57;;;13.47;;
2570;SDS011;1295;51.130;6.732;2023-08-20T07:03:05;57.40;;;11.17;;
2570;SDS011;1295;51.130;6.732;2023-08-20T07:05:30;62.90;;;19.10;;
2570;SDS011;1295;51.130;6.732;2023-08-20T07:07:56;61.30;;;17.87;;
2570;SDS011;1295;51.130;6.732;2023-08-20T07:10:22;65.77;;;21.90;;
2570;SDS011;1295;51.130;6.732;2023-08-20T07:12:48;58.43;;;14.70;;
2570;SDS011;1295;51.130;6.732;2023-08-20T07:15:14;58.50;;;20.40;;
2570;SDS011;1295;51.130;6.732;2023-08-20T07:17:40;70.60;;;26.37;;
2570;SDS011;1295;51.130;6.732;2023-08-20T07:20:06;61.03;;;19.53;;
2570;SDS011;1295;51.130;6.732;2023-08-20T07:22:32;76.30;;;20.83;;
2570;SDS011;1295;51.130;6.732;2023-08-20T07:24:58;55.40;;;14.83;;
2570;SDS011;1295;51.130;6.732;2023-08-20T07:27:23;65.53;;;25.17;;
2570;SDS011;1295;51.130;6.732;2023-08-20T07:29:49;73.83;;;22.47;;
2570;SDS011;1295;51.130;6.732;2023-08-20T07:32:15;56.77;;;12.90;;
2570;SDS011;1295;51.130;6.732;2023-08-20T07:34:41;57.47;;;13.87;;
2570;SDS011;1295;51.130;6.732;2023-08-20T07:37:07;66.30;;;22.30;;
2570;SDS011;1295;51.130;6.732;2023-08-20T07:39:32;62.93;;;20.90;;
2570;SDS011;1295;51.130;6.732;2023-08-20T07:41:58;67.20;;;19.60;;
2570;SDS011;1295;51.130;6.732;2023-08-20T07:44:24;62.90;;;19.17;;
2570;SDS011;1295;51.130;6.732;2023-08-20T07:46:50;64.30;;;19.60;;
2570;SDS011;1295;51.130;6.732;2023-08-20T07:49:16;63.10;;;20.90;;
2570;SDS011;1295;51.130;6.732;2023-08-20T07:51:41;53.30;;;12.70;;
2570;SDS011;1295;51.130;6.732;2023-08-20T07:54:07;60.60;;;25.47;;
2570;SDS011;1295;51.130;6.732;2023-08-20T07:56:32;59.00;;;18.10;;
2570;SDS011;1295;51.130;6.732;2023-08-20T07:58:58;53.60;;;13.75;;
2570;SDS011;1295;51.130;6.732;2023-08-20T08:01:24;60.13;;;24.70;;
2570;SDS011;1295;51.130;6.732;2023-08-20T08:03:49;53.60;;;24.17;;
2570;SDS011;1295;51.130;6.732;2023-08-20T08:06:15;49.67;;;21.52;;
2570;SDS011;1295;51.130;6.732;2023-08-20T08:08:42;56.93;;;18.80;;
2570;SDS011;1295;51.130;6.732;2023-08-20T08:11:07;59.27;;;19.43;;
2570;SDS011;1295;51.130;6.732;2023-08-20T08:13:33;61.10;;;15.90;;
2570;SDS011;1295;51.130;6.732;2023-08-20T08:15:58;55.50;;;15.10;;
2570;SDS011;1295;51.130;6.732;2023-08-20T08:18:24;52.00;;;10.90;;
2570;SDS011;1295;51.130;6.732;2023-08-20T08:20:49;65.73;;;17.17;;
2570;SDS011;1295;51.130;6.732;2023-08-20T08:23:15;53.20;;;12.03;;
2570;SDS011;1295;51.130;6.732;2023-08-20T08:25:41;57.63;;;13.40;;
2570;SDS011;1295;51.130;6.732;2023-08-20T08:28:06;50.13;;;10.33;;
2570;SDS011;1295;51.130;6.732;2023-08-20T08:30:32;53.67;;;11.70;;
2570;SDS011;1295;51.130;6.732;2023-08-20T08:32:58;58.70;;;16.60;;
2570;SDS011;1295;51.130;6.732;2023-08-20T08:35:23;55.07;;;10.90;;
2570;SDS011;1295;51.130;6.732;2023-08-20T08:37:50;64.60;;;18.93;;
2570;SDS011;1295;51.130;6.732;2023-08-20T08:40:15;52.40;;;10.97;;
2570;SDS011;1295;51.130;6.732;2023-08-20T08:42:41;57.33;;;17.47;;
2570;SDS011;1295;51.130;6.732;2023-08-20T08:45:09;51.37;;;14.00;;
2570;SDS011;1295;51.130;6.732;2023-08-20T08:47:35;62.27;;;18.80;;
2570;SDS011;1295;51.130;6.732;2023-08-20T08:50:01;60.57;;;18.50;;
2570;SDS011;1295;51.130;6.732;2023-08-20T08:52:26;76.43;;;20.00;;
2570;SDS011;1295;51.130;6.732;2023-08-20T08:54:52;59.90;;;14.00;;
2570;SDS011;1295;51.130;6.732;2023-08-20T08:57:18;49.33;;;11.03;;
2570;SDS011;1295;51.130;6.732;2023-08-20T08:59:43;50.47;;;10.90;;
2570;SDS011;1295;51.130;6.732;2023-08-20T09:02:09;57.80;;;12.60;;
2570;SDS011;1295;51.130;6.732;2023-08-20T09:04:37;50.90;;;10.90;;
2570;SDS011;1295;51.130;6.732;2023-08-20T09:07:00;53.50;;;12.67;;
2570;SDS011;1295;51.130;6.732;2023-08-20T09:09:26;59.60;;;17.83;;
2570;SDS011;1295;51.130;6.732;2023-08-20T09:11:51;55.13;;;13.47;;
2570;SDS011;1295;51.130;6.732;2023-08-20T09:14:21;59.07;;;15.53;;
2570;SDS011;1295;51.130;6.732;2023-08-20T09:16:46;53.67;;;14.90;;
2570;SDS011;1295;51.130;6.732;2023-08-20T09:19:12;53.70;;;15.27;;
2570;SDS011;1295;51.130;6.732;2023-08-20T09:21:37;50.33;;;13.43;;
2570;SDS011;1295;51.130;6.732;2023-08-20T09:24:03;49.63;;;10.67;;
2570;SDS011;1295;51.130;6.732;2023-08-20T09:26:30;56.93;;;13.33;;
2570;SDS011;1295;51.130;6.732;2023-08-20T09:28:56;56.27;;;11.13;;
2570;SDS011;1295;51.130;6.732;2023-08-20T09:31:36;52.40;;;9.60;;
2570;SDS011;1295;51.130;6.732;2023-08-20T09:33:48;52.63;;;11.60;;
2570;SDS011;1295;51.130;6.732;2023-08-20T09:36:14;58.90;;;14.77;;
2570;SDS011;1295;51.130;6.732;2023-08-20T09:38:40;51.30;;;13.00;;
2570;SDS011;1295;51.130;6.732;2023-08-20T09:41:05;52.73;;;10.30;;
2570;SDS011;1295;51.130;6.732;2023-08-20T09:43:31;53.63;;;10.67;;
2570;SDS011;1295;51.130;6.732;2023-08-20T09:45:57;53.90;;;12.30;;
2570;SDS011;1295;51.130;6.732;2023-08-20T09:48:22;53.70;;;11.33;;
2570;SDS011;1295;51.130;6.732;2023-08-20T09:50:48;52.87;;;12.03;;
2570;SDS011;1295;51.130;6.732;2023-08-20T09:53:20;57.93;;;19.90;;
2570;SDS011;1295;51.130;6.732;2023-08-20T09:56:01;61.70;;;14.33;;
2570;SDS011;1295;51.130;6.732;2023-08-20T09:58:23;52.00;;;13.50;;
2570;SDS011;1295;51.130;6.732;2023-08-20T10:00:49;51.77;;;14.03;;
2570;SDS011;1295;51.130;6.732;2023-08-20T10:03:14;53.40;;;17.07;;
2570;SDS011;1295;51.130;6.732;2023-08-20T10:05:40;53.57;;;11.80;;
2570;SDS011;1295;51.130;6.732;2023-08-20T10:08:05;55.43;;;20.20;;
2570;SDS011;1295;51.130;6.732;2023-08-20T10:10:31;57.40;;;15.33;;
2570;SDS011;1295;51.130;6.732;2023-08-20T10:12:57;54.53;;;17.60;;
2570;SDS011;1295;51.130;6.732;2023-08-20T10:15:23;53.40;;;16.33;;
2570;SDS011;1295;51.130;6.732;2023-08-20T10:17:49;60.27;;;19.93;;
2570;SDS011;1295;51.130;6.732;2023-08-20T10:20:14;60.47;;;24.70;;
2570;SDS011;1295;51.130;6.732;2023-08-20T10:22:40;61.83;;;21.70;;
2570;SDS011;1295;51.130;6.732;2023-08-20T10:25:07;61.50;;;27.30;;
2570;SDS011;1295;51.130;6.732;2023-08-20T10:27:34;55.53;;;16.33;;
2570;SDS011;1295;51.130;6.732;2023-08-20T10:29:59;55.60;;;15.03;;
2570;SDS011;1295;51.130;6.732;2023-08-20T10:35:02;53.20;;;15.37;;
2570;SDS011;1295;51.130;6.732;2023-08-20T10:37:28;52.43;;;14.83;;
2570;SDS011;1295;51.130;6.732;2023-08-20T10:39:55;50.60;;;14.10;;
2570;SDS011;1295;51.130;6.732;2023-08-20T10:42:25;54.57;;;18.23;;
2570;SDS011;1295;51.130;6.732;2023-08-20T10:50:01;55.73;;;17.83;;
2570;SDS011;1295;51.130;6.732;2023-08-20T10:52:26;54.23;;;15.70;;
2570;SDS011;1295;51.130;6.732;2023-08-20T10:54:53;54.47;;;13.10;;
2570;SDS011;1295;51.130;6.732;2023-08-20T10:57:19;64.03;;;23.47;;
2570;SDS011;1295;51.130;6.732;2023-08-20T10:59:47;51.60;;;17.30;;
2570;SDS011;1295;51.130;6.732;2023-08-20T11:02:13;50.40;;;16.20;;
2570;SDS011;1295;51.130;6.732;2023-08-20T11:04:37;53.47;;;17.57;;
2570;SDS011;1295;51.130;6.732;2023-08-20T11:07:03;55.20;;;18.20;;
2570;SDS011;1295;51.130;6.732;2023-08-20T11:09:29;55.30;;;18.00;;
2570;SDS011;1295;51.130;6.732;2023-08-20T11:11:54;54.83;;;19.77;;
2570;SDS011;1295;51.130;6.732;2023-08-20T11:14:20;58.30;;;16.60;;
2570;SDS011;1295;51.130;6.732;2023-08-20T11:16:46;54.53;;;14.67;;
2570;SDS011;1295;51.130;6.732;2023-08-20T11:19:12;54.60;;;14.87;;
2570;SDS011;1295;51.130;6.732;2023-08-20T11:21:38;53.57;;;13.23;;
2570;SDS011;1295;51.130;6.732;2023-08-20T11:24:03;54.53;;;12.00;;
2570;SDS011;1295;51.130;6.732;2023-08-20T11:26:29;54.23;;;10.97;;
2570;SDS011;1295;51.130;6.732;2023-08-20T11:28:55;55.93;;;12.30;;
2570;SDS011;1295;51.130;6.732;2023-08-20T11:31:21;56.67;;;12.80;;
2570;SDS011;1295;51.130;6.732;2023-08-20T11:33:46;54.23;;;20.67;;
2570;SDS011;1295;51.130;6.732;2023-08-20T11:36:12;56.00;;;12.00;;
2570;SDS011;1295;51.130;6.732;2023-08-20T11:38:37;54.00;;;16.30;;
2570;SDS011;1295;51.130;6.732;2023-08-20T11:41:03;49.93;;;14.20;;
2570;SDS011;1295;51.130;6.732;2023-08-20T11:43:29;57.17;;;13.90;;
2570;SDS011;1295;51.130;6.732;2023-08-20T11:45:54;51.60;;;12.37;;
2570;SDS011;1295;51.130;6.732;2023-08-20T11:48:21;57.90;;;13.77;;
2570;SDS011;1295;51.130;6.732;2023-08-20T11:50:47;56.43;;;15.30;;
2570;SDS011;1295;51.130;6.732;2023-08-20T11:53:12;54.07;;;16.40;;
2570;SDS011;1295;51.130;6.732;2023-08-20T11:55:38;58.43;;;20.30;;
2570;SDS011;1295;51.130;6.732;2023-08-20T11:58:03;56.83;;;14.33;;
2570;SDS011;1295;51.130;6.732;2023-08-20T12:00:30;55.70;;;19.87;;
2570;SDS011;1295;51.130;6.732;2023-08-20T12:02:55;53.27;;;12.83;;
2570;SDS011;1295;51.130;6.732;2023-08-20T12:05:21;53.60;;;11.20;;
2570;SDS011;1295;51.130;6.732;2023-08-20T12:10:21;56.77;;;13.07;;
2570;SDS011;1295;51.130;6.732;2023-08-20T12:12:47;58.93;;;14.13;;
2570;SDS011;1295;51.130;6.732;2023-08-20T12:15:13;49.33;;;11.93;;
2570;SDS011;1295;51.130;6.732;2023-08-20T12:17:38;53.50;;;11.40;;
2570;SDS011;1295;51.130;6.732;2023-08-20T12:20:05;59.87;;;14.50;;
2570;SDS011;1295;51.130;6.732;2023-08-20T12:22:32;54.60;;;11.67;;
2570;SDS011;1295;51.130;6.732;2023-08-20T12:24:57;56.27;;;11.50;;
2570;SDS011;1295;51.130;6.732;2023-08-20T12:27:23;57.47;;;11.57;;
2570;SDS011;1295;51.130;6.732;2023-08-20T12:29:56;52.83;;;11.20;;
2570;SDS011;1295;51.130;6.732;2023-08-20T12:32:21;63.47;;;16.27;;
2570;SDS011;1295;51.130;6.732;2023-08-20T12:35:03;57.70;;;15.23;;
2570;SDS011;1295;51.130;6.732;2023-08-20T12:37:29;54.50;;;14.40;;
2570;SDS011;1295;51.130;6.732;2023-08-20T12:39:55;54.90;;;11.77;;
2570;SDS011;1295;51.130;6.732;2023-08-20T12:42:21;55.03;;;14.67;;
2570;SDS011;1295;51.130;6.732;2023-08-20T12:44:46;52.70;;;10.67;;
2570;SDS011;1295;51.130;6.732;2023-08-20T12:47:12;54.80;;;14.53;;
2570;SDS011;1295;51.130;6.732;2023-08-20T12:49:38;57.17;;;11.63;;
2570;SDS011;1295;51.130;6.732;2023-08-20T12:52:04;55.67;;;11.93;;
2570;SDS011;1295;51.130;6.732;2023-08-20T12:54:31;55.63;;;14.50;;
2570;SDS011;1295;51.130;6.732;2023-08-20T12:56:56;55.27;;;12.13;;
2570;SDS011;1295;51.130;6.732;2023-08-20T12:59:22;55.20;;;12.57;;
2570;SDS011;1295;51.130;6.732;2023-08-20T13:01:47;55.80;;;18.80;;
2570;SDS011;1295;51.130;6.732;2023-08-20T13:04:13;54.53;;;13.30;;
2570;SDS011;1295;51.130;6.732;2023-08-20T13:06:39;54.97;;;12.20;;
2570;SDS011;1295;51.130;6.732;2023-08-20T13:09:05;54.70;;;14.73;;
2570;SDS011;1295;51.130;6.732;2023-08-20T13:11:33;55.33;;;12.03;;
2570;SDS011;1295;51.130;6.732;2023-08-20T13:13:59;53.07;;;11.90;;
2570;SDS011;1295;51.130;6.732;2023-08-20T13:16:25;51.40;;;13.07;;
2570;SDS011;1295;51.130;6.732;2023-08-20T13:18:51;54.67;;;12.10;;
2570;SDS011;1295;51.130;6.732;2023-08-20T13:21:18;53.63;;;14.13;;
2570;SDS011;1295;51.130;6.732;2023-08-20T13:23:43;53.00;;;21.30;;
2570;SDS011;1295;51.130;6.732;2023-08-20T13:26:09;52.77;;;12.83;;
2570;SDS011;1295;51.130;6.732;2023-08-20T13:28:35;56.40;;;12.57;;
2570;SDS011;1295;51.130;6.732;2023-08-20T13:31:00;55.30;;;12.40;;
2570;SDS011;1295;51.130;6.732;2023-08-20T13:33:26;59.50;;;13.53;;
2570;SDS011;1295;51.130;6.732;2023-08-20T13:35:51;52.03;;;14.20;;
2570;SDS011;1295;51.130;6.732;2023-08-20T13:38:17;56.23;;;18.20;;
2570;SDS011;1295;51.130;6.732;2023-08-20T13:40:43;56.50;;;12.60;;
2570;SDS011;1295;51.130;6.732;2023-08-20T13:43:08;52.67;;;12.67;;
2570;SDS011;1295;51.130;6.732;2023-08-20T13:45:34;55.47;;;12.93;;
2570;SDS011;1295;51.130;6.732;2023-08-20T13:48:00;56.73;;;11.97;;
2570;SDS011;1295;51.130;6.732;2023-08-20T13:50:26;53.77;;;11.40;;
2570;SDS011;1295;51.130;6.732;2023-08-20T13:52:52;55.33;;;11.97;;
2570;SDS011;1295;51.130;6.732;2023-08-20T13:55:18;55.47;;;13.17;;
2570;SDS011;1295;51.130;6.732;2023-08-20T13:57:43;53.07;;;13.83;;
2570;SDS011;1295;51.130;6.732;2023-08-20T14:00:10;51.60;;;11.00;;
2570;SDS011;1295;51.130;6.732;2023-08-20T14:02:36;54.37;;;10.87;;
2570;SDS011;1295;51.130;6.732;2023-08-20T14:05:02;58.30;;;12.53;;
2570;SDS011;1295;51.130;6.732;2023-08-20T14:07:28;54.10;;;11.17;;
2570;SDS011;1295;51.130;6.732;2023-08-20T14:09:54;57.60;;;12.87;;
2570;SDS011;1295;51.130;6.732;2023-08-20T14:12:20;54.60;;;11.47;;
2570;SDS011;1295;51.130;6.732;2023-08-20T14:14:45;56.10;;;11.77;;
2570;SDS011;1295;51.130;6.732;2023-08-20T14:17:11;54.60;;;11.83;;
2570;SDS011;1295;51.130;6.732;2023-08-20T14:19:37;53.80;;;12.17;;
2570;SDS011;1295;51.130;6.732;2023-08-20T14:22:02;53.70;;;10.30;;
2570;SDS011;1295;51.130;6.732;2023-08-20T14:24:29;53.00;;;11.47;;
2570;SDS011;1295;51.130;6.732;2023-08-20T14:26:54;53.10;;;10.13;;
2570;SDS011;1295;51.130;6.732;2023-08-20T14:29:20;52.60;;;10.40;;
2570;SDS011;1295;51.130;6.732;2023-08-20T14:31:46;57.77;;;12.67;;
2570;SDS011;1295;51.130;6.732;2023-08-20T14:34:11;57.47;;;12.80;;
2570;SDS011;1295;51.130;6.732;2023-08-20T14:36:37;55.57;;;10.80;;
2570;SDS011;1295;51.130;6.732;2023-08-20T14:39:05;59.43;;;12.40;;
2570;SDS011;1295;51.130;6.732;2023-08-20T14:41:29;51.37;;;9.50;;
2570;SDS011;1295;51.130;6.732;2023-08-20T14:43:55;59.20;;;11.83;;
2570;SDS011;1295;51.130;6.732;2023-08-20T14:46:21;52.03;;;9.27;;
2570;SDS011;1295;51.130;6.732;2023-08-20T14:48:47;56.30;;;8.53;;
2570;SDS011;1295;51.130;6.732;2023-08-20T14:51:13;52.80;;;8.73;;
2570;SDS011;1295;51.130;6.732;2023-08-20T14:53:39;55.43;;;10.00;;
2570;SDS011;1295;51.130;6.732;2023-08-20T14:56:05;55.50;;;9.33;;